sensor_id;sensor_type;location;lat;lon;timestamp;temperature;humidity
983;DHT22;480;48.124;11.578;2022-10-23T00:00:33;12.10;99.90
983;DHT22;480;48.124;11.578;2022-10-23T00:03:01;12.00;99.90
983;DHT22;480;48.124;11.578;2022-10-23T00:05:29;11.90;99.90
983;DHT22;480;48.124;11.578;2022-10-23T00:07:58;11.80;99.90
983;DHT22;480;48.124;11.578;2022-10-23T00:10:26;11.70;99.90
983;DHT22;480;48.124;11.578;2022-10-23T00:12:53;11.60;99.90
983;DHT22;480;48.124;11.578;2022-10-23T00:15:23;11.70;99.90
983;DHT22;480;48.124;11.578;2022-10-23T00:17:52;11.90;99.90
983;DHT22;480;48.124;11.578;2022-10-23T00:20:19;12.10;99.90
983;DHT22;480;48.124;11.578;2022-10-23T00:22:46;11.80;99.90
983;DHT22;480;48.124;11.578;2022-10-23T00:25:13;11.90;99.90
983;DHT22;480;48.124;11.578;2022-10-23T00:27:41;12.00;99.90
983;DHT22;480;48.124;11.578;2022-10-23T00:30:09;11.90;99.90
983;DHT22;480;48.124;11.578;2022-10-23T00:32:38;11.80;99.90
983;DHT22;480;48.124;11.578;2022-10-23T00:35:06;11.80;99.90
983;DHT22;480;48.124;11.578;2022-10-23T00:37:33;11.70;99.90
983;DHT22;480;48.124;11.578;2022-10-23T00:40:00;11.50;99.90
983;DHT22;480;48.124;11.578;2022-10-23T00:42:27;11.40;99.90
983;DHT22;480;48.124;11.578;2022-10-23T00:45:14;11.30;99.90
983;DHT22;480;48.124;11.578;2022-10-23T00:47:43;11.10;99.90
983;DHT22;480;48.124;11.578;2022-10-23T00:50:11;11.20;99.90
983;DHT22;480;48.124;11.578;2022-10-23T00:52:41;11.10;99.90
983;DHT22;480;48.124;11.578;2022-10-23T00:55:11;11.20;99.90
983;DHT22;480;48.124;11.578;2022-10-23T00:57:41;11.20;99.90
983;DHT22;480;48.124;11.578;2022-10-23T01:00:14;11.10;99.90
983;DHT22;480;48.124;11.578;2022-10-23T01:02:43;11.10;99.90
983;DHT22;480;48.124;11.578;2022-10-23T01:05:10;11.10;99.90
983;DHT22;480;48.124;11.578;2022-10-23T01:07:42;11.00;99.90
983;DHT22;480;48.124;11.578;2022-10-23T01:10:14;11.20;99.90
983;DHT22;480;48.124;11.578;2022-10-23T01:12:45;11.20;99.90
983;DHT22;480;48.124;11.578;2022-10-23T01:15:21;11.00;99.90
983;DHT22;480;48.124;11.578;2022-10-23T01:17:55;10.90;99.90
983;DHT22;480;48.124;11.578;2022-10-23T01:20:31;10.80;99.90
983;DHT22;480;48.124;11.578;2022-10-23T01:23:13;11.00;99.90
983;DHT22;480;48.124;11.578;2022-10-23T01:26:00;11.10;99.90
983;DHT22;480;48.124;11.578;2022-10-23T01:28:32;11.20;99.90
983;DHT22;480;48.124;11.578;2022-10-23T01:31:05;11.30;99.90
983;DHT22;480;48.124;11.578;2022-10-23T01:33:38;11.30;99.90
983;DHT22;480;48.124;11.578;2022-10-23T01:36:10;11.20;99.90
983;DHT22;480;48.124;11.578;2022-10-23T01:38:41;11.10;99.90
983;DHT22;480;48.124;11.578;2022-10-23T01:41:13;11.20;99.90
983;DHT22;480;48.124;11.578;2022-10-23T01:43:47;11.30;99.90
983;DHT22;480;48.124;11.578;2022-10-23T01:46:16;11.40;99.90
983;DHT22;480;48.124;11.578;2022-10-23T01:48:47;11.50;99.90
983;DHT22;480;48.124;11.578;2022-10-23T01:51:17;11.50;99.90
983;DHT22;480;48.124;11.578;2022-10-23T01:53:46;11.50;99.90
983;DHT22;480;48.124;11.578;2022-10-23T01:56:18;11.40;99.90
983;DHT22;480;48.124;11.578;2022-10-23T01:58:49;11.40;99.90
983;DHT22;480;48.124;11.578;2022-10-23T02:01:21;11.50;99.90
983;DHT22;480;48.124;11.578;2022-10-23T02:03:50;11.50;99.90
983;DHT22;480;48.124;11.578;2022-10-23T02:06:18;11.40;99.90
983;DHT22;480;48.124;11.578;2022-10-23T02:08:45;11.50;99.90
983;DHT22;480;48.124;11.578;2022-10-23T02:11:14;11.60;99.90
983;DHT22;480;48.124;11.578;2022-10-23T02:13:45;11.60;99.90
983;DHT22;480;48.124;11.578;2022-10-23T02:16:23;11.70;99.90
983;DHT22;480;48.124;11.578;2022-10-23T02:18:55;11.70;99.90
983;DHT22;480;48.124;11.578;2022-10-23T02:21:29;11.70;99.90
983;DHT22;480;48.124;11.578;2022-10-23T02:24:00;11.50;99.90
983;DHT22;480;48.124;11.578;2022-10-23T02:26:33;11.40;99.90
983;DHT22;480;48.124;11.578;2022-10-23T02:29:07;11.10;99.90
983;DHT22;480;48.124;11.578;2022-10-23T02:31:38;11.10;99.90
983;DHT22;480;48.124;11.578;2022-10-23T02:34:05;10.90;99.90
983;DHT22;480;48.124;11.578;2022-10-23T02:36:32;10.90;99.90
983;DHT22;480;48.124;11.578;2022-10-23T02:38:59;11.10;99.90
983;DHT22;480;48.124;11.578;2022-10-23T02:41:36;11.30;99.90
983;DHT22;480;48.124;11.578;2022-10-23T02:44:24;11.40;99.90
983;DHT22;480;48.124;11.578;2022-10-23T02:47:03;11.20;99.90
983;DHT22;480;48.124;11.578;2022-10-23T02:49:38;11.10;99.90
983;DHT22;480;48.124;11.578;2022-10-23T02:52:13;11.10;99.90
983;DHT22;480;48.124;11.578;2022-10-23T02:54:51;10.80;99.90
983;DHT22;480;48.124;11.578;2022-10-23T02:57:24;10.70;99.90
983;DHT22;480;48.124;11.578;2022-10-23T03:00:00;10.80;99.90
983;DHT22;480;48.124;11.578;2022-10-23T03:02:34;10.80;99.90
983;DHT22;480;48.124;11.578;2022-10-23T03:05:05;10.80;99.90
983;DHT22;480;48.124;11.578;2022-10-23T03:07:34;10.80;99.90
983;DHT22;480;48.124;11.578;2022-10-23T03:10:01;10.80;99.90
983;DHT22;480;48.124;11.578;2022-10-23T03:12:28;10.70;99.90
983;DHT22;480;48.124;11.578;2022-10-23T03:14:55;10.50;99.90
983;DHT22;480;48.124;11.578;2022-10-23T03:17:22;10.50;99.90
983;DHT22;480;48.124;11.578;2022-10-23T03:19:51;10.60;99.90
983;DHT22;480;48.124;11.578;2022-10-23T03:22:18;10.60;99.90
983;DHT22;480;48.124;11.578;2022-10-23T03:24:45;10.80;99.90
983;DHT22;480;48.124;11.578;2022-10-23T03:27:13;10.80;99.90
983;DHT22;480;48.124;11.578;2022-10-23T03:29:40;10.60;99.90
983;DHT22;480;48.124;11.578;2022-10-23T03:32:08;10.70;99.90
983;DHT22;480;48.124;11.578;2022-10-23T03:34:35;10.60;99.90
983;DHT22;480;48.124;11.578;2022-10-23T03:37:03;10.30;99.90
983;DHT22;480;48.124;11.578;2022-10-23T03:39:30;10.10;99.90
983;DHT22;480;48.124;11.578;2022-10-23T03:41:57;10.30;99.90
983;DHT22;480;48.124;11.578;2022-10-23T03:44:24;10.40;99.90
983;DHT22;480;48.124;11.578;2022-10-23T03:46:51;10.30;99.90
983;DHT22;480;48.124;11.578;2022-10-23T03:49:18;10.30;99.90
983;DHT22;480;48.124;11.578;2022-10-23T03:51:45;10.20;99.90
983;DHT22;480;48.124;11.578;2022-10-23T03:54:19;10.10;99.90
983;DHT22;480;48.124;11.578;2022-10-23T03:56:46;10.20;99.90
983;DHT22;480;48.124;11.578;2022-10-23T03:59:13;10.40;99.90
983;DHT22;480;48.124;11.578;2022-10-23T04:01:40;10.60;99.90
983;DHT22;480;48.124;11.578;2022-10-23T04:04:07;10.60;99.90
983;DHT22;480;48.124;11.578;2022-10-23T04:06:34;10.80;99.90
983;DHT22;480;48.124;11.578;2022-10-23T04:09:01;10.80;99.90
983;DHT22;480;48.124;11.578;2022-10-23T04:11:30;10.90;99.90
983;DHT22;480;48.124;11.578;2022-10-23T04:13:57;10.90;99.90
983;DHT22;480;48.124;11.578;2022-10-23T04:16:24;10.80;99.90
983;DHT22;480;48.124;11.578;2022-10-23T04:18:51;10.80;99.90
983;DHT22;480;48.124;11.578;2022-10-23T04:21:19;10.90;99.90
983;DHT22;480;48.124;11.578;2022-10-23T04:23:46;11.00;99.90
983;DHT22;480;48.124;11.578;2022-10-23T04:26:13;10.90;99.90
983;DHT22;480;48.124;11.578;2022-10-23T04:28:41;10.80;99.90
983;DHT22;480;48.124;11.578;2022-10-23T04:31:08;10.60;99.90
983;DHT22;480;48.124;11.578;2022-10-23T04:33:35;10.70;99.90
983;DHT22;480;48.124;11.578;2022-10-23T04:36:02;10.80;99.90
983;DHT22;480;48.124;11.578;2022-10-23T04:38:30;10.80;99.90
983;DHT22;480;48.124;11.578;2022-10-23T04:40:57;10.60;99.90
983;DHT22;480;48.124;11.578;2022-10-23T04:43:24;10.50;99.90
983;DHT22;480;48.124;11.578;2022-10-23T04:45:52;10.40;99.90
983;DHT22;480;48.124;11.578;2022-10-23T04:48:19;10.20;99.90
983;DHT22;480;48.124;11.578;2022-10-23T04:50:54;10.20;99.90
983;DHT22;480;48.124;11.578;2022-10-23T04:53:22;10.00;99.90
983;DHT22;480;48.124;11.578;2022-10-23T04:55:49;10.00;99.90
983;DHT22;480;48.124;11.578;2022-10-23T04:58:17;9.90;99.90
983;DHT22;480;48.124;11.578;2022-10-23T05:00:44;9.90;99.90
983;DHT22;480;48.124;11.578;2022-10-23T05:03:13;9.70;99.90
983;DHT22;480;48.124;11.578;2022-10-23T05:05:40;9.80;99.90
983;DHT22;480;48.124;11.578;2022-10-23T05:08:07;9.90;99.90
983;DHT22;480;48.124;11.578;2022-10-23T05:10:35;9.90;99.90
983;DHT22;480;48.124;11.578;2022-10-23T05:13:03;9.90;99.90
983;DHT22;480;48.124;11.578;2022-10-23T05:15:30;9.90;99.90
983;DHT22;480;48.124;11.578;2022-10-23T05:18:01;9.80;99.90
983;DHT22;480;48.124;11.578;2022-10-23T05:20:33;9.90;99.90
983;DHT22;480;48.124;11.578;2022-10-23T05:23:02;9.90;99.90
983;DHT22;480;48.124;11.578;2022-10-23T05:25:32;9.90;99.90
983;DHT22;480;48.124;11.578;2022-10-23T05:27:59;9.90;99.90
983;DHT22;480;48.124;11.578;2022-10-23T05:30:26;9.80;99.90
983;DHT22;480;48.124;11.578;2022-10-23T05:32:53;9.80;99.90
983;DHT22;480;48.124;11.578;2022-10-23T05:35:22;9.80;99.90
983;DHT22;480;48.124;11.578;2022-10-23T05:37:51;9.80;99.90
983;DHT22;480;48.124;11.578;2022-10-23T05:40:20;9.70;99.90
983;DHT22;480;48.124;11.578;2022-10-23T05:42:47;9.70;99.90
983;DHT22;480;48.124;11.578;2022-10-23T05:45:14;9.90;99.90
983;DHT22;480;48.124;11.578;2022-10-23T05:47:43;10.10;99.90
983;DHT22;480;48.124;11.578;2022-10-23T05:50:10;10.20;99.90
983;DHT22;480;48.124;11.578;2022-10-23T05:52:37;10.40;99.90
983;DHT22;480;48.124;11.578;2022-10-23T05:55:06;10.50;99.90
983;DHT22;480;48.124;11.578;2022-10-23T05:57:33;10.60;99.90
983;DHT22;480;48.124;11.578;2022-10-23T06:00:00;10.70;99.90
983;DHT22;480;48.124;11.578;2022-10-23T06:02:28;10.80;99.90
983;DHT22;480;48.124;11.578;2022-10-23T06:04:54;10.80;99.90
983;DHT22;480;48.124;11.578;2022-10-23T06:07:23;10.90;99.90
983;DHT22;480;48.124;11.578;2022-10-23T06:09:50;10.90;99.90
983;DHT22;480;48.124;11.578;2022-10-23T06:12:19;10.90;99.90
983;DHT22;480;48.124;11.578;2022-10-23T06:14:46;10.90;99.90
983;DHT22;480;48.124;11.578;2022-10-23T06:17:16;11.10;99.90
983;DHT22;480;48.124;11.578;2022-10-23T06:19:43;11.10;99.90
983;DHT22;480;48.124;11.578;2022-10-23T06:22:10;11.00;99.90
983;DHT22;480;48.124;11.578;2022-10-23T06:24:37;10.90;99.90
983;DHT22;480;48.124;11.578;2022-10-23T06:27:04;11.00;99.90
983;DHT22;480;48.124;11.578;2022-10-23T06:29:33;11.10;99.90
983;DHT22;480;48.124;11.578;2022-10-23T06:32:00;10.80;99.90
983;DHT22;480;48.124;11.578;2022-10-23T06:34:27;10.60;99.90
983;DHT22;480;48.124;11.578;2022-10-23T06:36:54;10.50;99.90
983;DHT22;480;48.124;11.578;2022-10-23T06:39:21;10.50;99.90
983;DHT22;480;48.124;11.578;2022-10-23T06:41:48;10.50;99.90
983;DHT22;480;48.124;11.578;2022-10-23T06:44:15;10.40;99.90
983;DHT22;480;48.124;11.578;2022-10-23T06:46:44;10.40;99.90
983;DHT22;480;48.124;11.578;2022-10-23T06:49:13;10.60;99.90
983;DHT22;480;48.124;11.578;2022-10-23T06:51:40;10.60;99.90
983;DHT22;480;48.124;11.578;2022-10-23T06:54:08;10.80;99.90
983;DHT22;480;48.124;11.578;2022-10-23T06:56:36;11.00;99.90
983;DHT22;480;48.124;11.578;2022-10-23T06:59:03;11.20;99.90
983;DHT22;480;48.124;11.578;2022-10-23T07:01:32;11.10;99.90
983;DHT22;480;48.124;11.578;2022-10-23T07:04:00;11.30;99.90
983;DHT22;480;48.124;11.578;2022-10-23T07:06:27;11.50;99.90
983;DHT22;480;48.124;11.578;2022-10-23T07:08:54;11.60;99.90
983;DHT22;480;48.124;11.578;2022-10-23T07:11:21;11.60;99.90
983;DHT22;480;48.124;11.578;2022-10-23T07:13:50;11.50;99.90
983;DHT22;480;48.124;11.578;2022-10-23T07:16:19;11.40;99.90
983;DHT22;480;48.124;11.578;2022-10-23T07:18:47;11.50;99.90
983;DHT22;480;48.124;11.578;2022-10-23T07:21:16;11.40;99.90
983;DHT22;480;48.124;11.578;2022-10-23T07:23:43;11.40;99.90
983;DHT22;480;48.124;11.578;2022-10-23T07:26:12;11.40;99.90
983;DHT22;480;48.124;11.578;2022-10-23T07:28:40;11.50;99.90
983;DHT22;480;48.124;11.578;2022-10-23T07:31:08;11.50;99.90
983;DHT22;480;48.124;11.578;2022-10-23T07:33:35;11.60;99.90
983;DHT22;480;48.124;11.578;2022-10-23T07:36:03;11.70;99.90
983;DHT22;480;48.124;11.578;2022-10-23T07:38:32;11.70;99.90
983;DHT22;480;48.124;11.578;2022-10-23T07:40:59;11.70;99.90
983;DHT22;480;48.124;11.578;2022-10-23T07:43:27;11.80;99.90
983;DHT22;480;48.124;11.578;2022-10-23T07:45:54;12.00;99.90
983;DHT22;480;48.124;11.578;2022-10-23T07:48:21;12.30;99.90
983;DHT22;480;48.124;11.578;2022-10-23T07:50:48;12.30;99.90
983;DHT22;480;48.124;11.578;2022-10-23T07:53:17;12.20;99.90
983;DHT22;480;48.124;11.578;2022-10-23T07:55:52;12.30;99.90
983;DHT22;480;48.124;11.578;2022-10-23T07:58:20;12.40;99.90
983;DHT22;480;48.124;11.578;2022-10-23T08:01:01;12.60;99.90
983;DHT22;480;48.124;11.578;2022-10-23T08:03:30;12.50;99.90
983;DHT22;480;48.124;11.578;2022-10-23T08:05:58;12.50;99.90
983;DHT22;480;48.124;11.578;2022-10-23T08:08:25;12.50;99.90
983;DHT22;480;48.124;11.578;2022-10-23T08:10:54;12.70;99.90
983;DHT22;480;48.124;11.578;2022-10-23T08:13:22;12.60;99.90
983;DHT22;480;48.124;11.578;2022-10-23T08:15:50;12.60;99.90
983;DHT22;480;48.124;11.578;2022-10-23T08:18:18;12.60;99.90
983;DHT22;480;48.124;11.578;2022-10-23T08:20:46;12.80;99.90
983;DHT22;480;48.124;11.578;2022-10-23T08:23:16;13.00;99.90
983;DHT22;480;48.124;11.578;2022-10-23T08:25:44;13.00;99.90
983;DHT22;480;48.124;11.578;2022-10-23T08:28:12;13.20;99.90
983;DHT22;480;48.124;11.578;2022-10-23T08:30:41;13.40;99.90
983;DHT22;480;48.124;11.578;2022-10-23T08:33:08;13.50;99.90
983;DHT22;480;48.124;11.578;2022-10-23T08:35:36;13.70;99.90
983;DHT22;480;48.124;11.578;2022-10-23T08:38:03;13.80;99.90
983;DHT22;480;48.124;11.578;2022-10-23T08:40:31;13.70;99.90
983;DHT22;480;48.124;11.578;2022-10-23T08:43:00;13.70;99.90
983;DHT22;480;48.124;11.578;2022-10-23T08:45:34;13.90;99.90
983;DHT22;480;48.124;11.578;2022-10-23T08:48:09;14.20;99.90
983;DHT22;480;48.124;11.578;2022-10-23T08:50:46;14.30;99.90
983;DHT22;480;48.124;11.578;2022-10-23T08:53:19;14.30;99.90
983;DHT22;480;48.124;11.578;2022-10-23T08:55:52;14.50;99.90
983;DHT22;480;48.124;11.578;2022-10-23T08:58:23;14.60;99.90
983;DHT22;480;48.124;11.578;2022-10-23T09:00:55;14.60;99.90
983;DHT22;480;48.124;11.578;2022-10-23T09:03:22;14.60;99.90
983;DHT22;480;48.124;11.578;2022-10-23T09:05:56;14.80;99.90
983;DHT22;480;48.124;11.578;2022-10-23T09:08:33;15.00;99.90
983;DHT22;480;48.124;11.578;2022-10-23T09:11:10;15.00;99.90
983;DHT22;480;48.124;11.578;2022-10-23T09:17:03;15.40;99.90
983;DHT22;480;48.124;11.578;2022-10-23T09:19:34;15.60;99.90
983;DHT22;480;48.124;11.578;2022-10-23T09:22:01;15.70;99.90
983;DHT22;480;48.124;11.578;2022-10-23T09:24:28;15.70;99.90
983;DHT22;480;48.124;11.578;2022-10-23T09:26:58;15.60;99.90
983;DHT22;480;48.124;11.578;2022-10-23T09:29:28;15.70;99.90
983;DHT22;480;48.124;11.578;2022-10-23T09:32:01;15.90;99.90
983;DHT22;480;48.124;11.578;2022-10-23T09:34:30;16.10;99.90
983;DHT22;480;48.124;11.578;2022-10-23T09:36:59;16.20;99.90
983;DHT22;480;48.124;11.578;2022-10-23T09:39:29;16.30;99.90
983;DHT22;480;48.124;11.578;2022-10-23T09:42:00;16.40;99.90
983;DHT22;480;48.124;11.578;2022-10-23T09:44:29;16.40;99.90
983;DHT22;480;48.124;11.578;2022-10-23T09:47:07;16.50;99.90
983;DHT22;480;48.124;11.578;2022-10-23T09:49:39;16.60;99.90
983;DHT22;480;48.124;11.578;2022-10-23T09:52:22;16.80;99.90
983;DHT22;480;48.124;11.578;2022-10-23T09:54:52;16.80;99.90
983;DHT22;480;48.124;11.578;2022-10-23T09:57:22;17.00;99.90
983;DHT22;480;48.124;11.578;2022-10-23T09:59:52;17.10;99.90
983;DHT22;480;48.124;11.578;2022-10-23T10:02:26;17.10;99.90
983;DHT22;480;48.124;11.578;2022-10-23T10:04:53;17.20;99.90
983;DHT22;480;48.124;11.578;2022-10-23T10:07:22;17.20;99.90
983;DHT22;480;48.124;11.578;2022-10-23T10:09:51;17.20;99.90
983;DHT22;480;48.124;11.578;2022-10-23T10:12:41;17.30;99.90
983;DHT22;480;48.124;11.578;2022-10-23T10:15:19;17.40;99.90
983;DHT22;480;48.124;11.578;2022-10-23T10:17:56;17.50;99.90
983;DHT22;480;48.124;11.578;2022-10-23T10:20:42;17.60;99.90
983;DHT22;480;48.124;11.578;2022-10-23T10:23:20;17.70;99.90
983;DHT22;480;48.124;11.578;2022-10-23T10:25:57;17.80;99.90
983;DHT22;480;48.124;11.578;2022-10-23T10:28:42;17.80;99.90
983;DHT22;480;48.124;11.578;2022-10-23T10:31:18;18.00;99.90
983;DHT22;480;48.124;11.578;2022-10-23T10:34:00;18.00;99.90
983;DHT22;480;48.124;11.578;2022-10-23T10:36:44;18.10;99.90
983;DHT22;480;48.124;11.578;2022-10-23T10:39:20;18.20;99.90
983;DHT22;480;48.124;11.578;2022-10-23T10:41:54;18.30;99.90
983;DHT22;480;48.124;11.578;2022-10-23T10:44:40;18.50;99.90
983;DHT22;480;48.124;11.578;2022-10-23T10:47:14;18.60;99.90
983;DHT22;480;48.124;11.578;2022-10-23T10:49:51;18.70;99.90
983;DHT22;480;48.124;11.578;2022-10-23T10:52:24;18.80;99.90
983;DHT22;480;48.124;11.578;2022-10-23T10:55:01;19.00;99.90
983;DHT22;480;48.124;11.578;2022-10-23T10:57:33;19.30;99.90
983;DHT22;480;48.124;11.578;2022-10-23T11:00:05;19.40;99.90
983;DHT22;480;48.124;11.578;2022-10-23T11:02:41;19.50;99.90
983;DHT22;480;48.124;11.578;2022-10-23T11:05:17;19.60;99.90
983;DHT22;480;48.124;11.578;2022-10-23T11:07:53;19.60;99.90
983;DHT22;480;48.124;11.578;2022-10-23T11:10:21;19.70;99.90
983;DHT22;480;48.124;11.578;2022-10-23T11:12:49;19.70;99.90
983;DHT22;480;48.124;11.578;2022-10-23T11:15:19;19.70;99.90
983;DHT22;480;48.124;11.578;2022-10-23T11:17:50;19.80;99.90
983;DHT22;480;48.124;11.578;2022-10-23T11:20:35;19.90;99.90
983;DHT22;480;48.124;11.578;2022-10-23T11:23:15;19.80;99.90
983;DHT22;480;48.124;11.578;2022-10-23T11:26:10;19.80;99.90
983;DHT22;480;48.124;11.578;2022-10-23T11:31:38;19.80;99.90
983;DHT22;480;48.124;11.578;2022-10-23T11:37:15;19.90;99.90
983;DHT22;480;48.124;11.578;2022-10-23T11:39:57;20.20;99.90
983;DHT22;480;48.124;11.578;2022-10-23T11:42:33;20.10;99.90
983;DHT22;480;48.124;11.578;2022-10-23T11:45:29;20.10;99.90
983;DHT22;480;48.124;11.578;2022-10-23T11:47:59;20.10;99.90
983;DHT22;480;48.124;11.578;2022-10-23T11:50:29;20.20;99.90
983;DHT22;480;48.124;11.578;2022-10-23T11:53:00;20.40;99.90
983;DHT22;480;48.124;11.578;2022-10-23T11:55:31;20.40;99.90
983;DHT22;480;48.124;11.578;2022-10-23T11:58:12;20.30;99.90
983;DHT22;480;48.124;11.578;2022-10-23T12:00:53;20.40;99.90
983;DHT22;480;48.124;11.578;2022-10-23T12:03:24;20.30;99.90
983;DHT22;480;48.124;11.578;2022-10-23T12:05:58;20.50;99.90
983;DHT22;480;48.124;11.578;2022-10-23T12:08:29;20.60;99.90
983;DHT22;480;48.124;11.578;2022-10-23T12:10:56;20.60;99.90
983;DHT22;480;48.124;11.578;2022-10-23T12:13:44;20.40;99.90
983;DHT22;480;48.124;11.578;2022-10-23T12:16:12;20.60;99.90
983;DHT22;480;48.124;11.578;2022-10-23T12:18:48;20.60;99.90
983;DHT22;480;48.124;11.578;2022-10-23T12:21:19;20.50;99.90
983;DHT22;480;48.124;11.578;2022-10-23T12:24:16;20.40;99.90
983;DHT22;480;48.124;11.578;2022-10-23T12:27:00;20.50;99.90
983;DHT22;480;48.124;11.578;2022-10-23T12:32:51;20.40;99.90
983;DHT22;480;48.124;11.578;2022-10-23T12:35:55;20.30;99.90
983;DHT22;480;48.124;11.578;2022-10-23T12:38:29;20.30;99.90
983;DHT22;480;48.124;11.578;2022-10-23T12:41:01;20.30;99.90
983;DHT22;480;48.124;11.578;2022-10-23T12:43:35;20.20;99.90
983;DHT22;480;48.124;11.578;2022-10-23T12:46:04;20.20;99.90
983;DHT22;480;48.124;11.578;2022-10-23T12:48:33;20.40;99.90
983;DHT22;480;48.124;11.578;2022-10-23T12:51:00;20.40;99.90
983;DHT22;480;48.124;11.578;2022-10-23T12:53:27;20.50;99.90
983;DHT22;480;48.124;11.578;2022-10-23T12:55:58;20.50;99.90
983;DHT22;480;48.124;11.578;2022-10-23T12:58:28;20.40;99.90
983;DHT22;480;48.124;11.578;2022-10-23T13:00:58;20.30;99.90
983;DHT22;480;48.124;11.578;2022-10-23T13:03:27;20.30;99.90
983;DHT22;480;48.124;11.578;2022-10-23T13:05:57;20.40;99.90
983;DHT22;480;48.124;11.578;2022-10-23T13:08:39;20.50;99.90
983;DHT22;480;48.124;11.578;2022-10-23T13:11:09;20.60;99.90
983;DHT22;480;48.124;11.578;2022-10-23T13:13:39;20.80;99.90
983;DHT22;480;48.124;11.578;2022-10-23T13:16:13;21.10;99.90
983;DHT22;480;48.124;11.578;2022-10-23T13:18:41;20.80;99.90
983;DHT22;480;48.124;11.578;2022-10-23T13:21:15;20.70;99.90
983;DHT22;480;48.124;11.578;2022-10-23T13:23:43;20.60;99.90
983;DHT22;480;48.124;11.578;2022-10-23T13:26:24;20.60;99.90
983;DHT22;480;48.124;11.578;2022-10-23T13:28:51;20.60;99.90
983;DHT22;480;48.124;11.578;2022-10-23T13:31:28;20.60;99.90
983;DHT22;480;48.124;11.578;2022-10-23T13:34:18;20.50;99.90
983;DHT22;480;48.124;11.578;2022-10-23T13:36:50;20.40;99.90
983;DHT22;480;48.124;11.578;2022-10-23T13:39:22;20.50;99.90
983;DHT22;480;48.124;11.578;2022-10-23T13:41:51;20.50;99.90
983;DHT22;480;48.124;11.578;2022-10-23T13:44:20;20.50;99.90
983;DHT22;480;48.124;11.578;2022-10-23T13:46:48;20.60;99.90
983;DHT22;480;48.124;11.578;2022-10-23T13:49:17;20.60;99.90
983;DHT22;480;48.124;11.578;2022-10-23T13:51:47;20.60;99.90
983;DHT22;480;48.124;11.578;2022-10-23T13:54:16;20.30;99.90
983;DHT22;480;48.124;11.578;2022-10-23T13:56:43;20.30;99.90
983;DHT22;480;48.124;11.578;2022-10-23T13:59:12;20.40;99.90
983;DHT22;480;48.124;11.578;2022-10-23T14:01:40;20.40;99.90
983;DHT22;480;48.124;11.578;2022-10-23T14:04:08;20.30;99.90
983;DHT22;480;48.124;11.578;2022-10-23T14:06:36;20.50;99.90
983;DHT22;480;48.124;11.578;2022-10-23T14:09:05;20.60;99.90
983;DHT22;480;48.124;11.578;2022-10-23T14:11:32;20.70;99.90
983;DHT22;480;48.124;11.578;2022-10-23T14:14:00;20.80;99.90
983;DHT22;480;48.124;11.578;2022-10-23T14:16:28;20.80;99.90
983;DHT22;480;48.124;11.578;2022-10-23T14:18:55;20.80;99.90
983;DHT22;480;48.124;11.578;2022-10-23T14:21:23;20.90;99.90
983;DHT22;480;48.124;11.578;2022-10-23T14:23:51;20.90;99.90
983;DHT22;480;48.124;11.578;2022-10-23T14:26:20;20.70;99.90
983;DHT22;480;48.124;11.578;2022-10-23T14:28:50;20.50;99.90
983;DHT22;480;48.124;11.578;2022-10-23T14:31:17;20.40;99.90
983;DHT22;480;48.124;11.578;2022-10-23T14:33:51;20.30;99.90
983;DHT22;480;48.124;11.578;2022-10-23T14:36:19;20.20;99.90
983;DHT22;480;48.124;11.578;2022-10-23T14:38:46;20.10;99.90
983;DHT22;480;48.124;11.578;2022-10-23T14:41:15;20.30;99.90
983;DHT22;480;48.124;11.578;2022-10-23T14:43:42;20.10;99.90
983;DHT22;480;48.124;11.578;2022-10-23T14:46:11;20.20;99.90
983;DHT22;480;48.124;11.578;2022-10-23T14:48:38;20.20;99.90
983;DHT22;480;48.124;11.578;2022-10-23T14:51:17;20.20;99.90
983;DHT22;480;48.124;11.578;2022-10-23T14:53:46;20.00;99.90
983;DHT22;480;48.124;11.578;2022-10-23T14:56:14;19.90;99.90
983;DHT22;480;48.124;11.578;2022-10-23T14:58:41;20.00;99.90
983;DHT22;480;48.124;11.578;2022-10-23T15:01:08;20.00;99.90
983;DHT22;480;48.124;11.578;2022-10-23T15:03:36;20.00;99.90
983;DHT22;480;48.124;11.578;2022-10-23T15:06:05;19.90;99.90
983;DHT22;480;48.124;11.578;2022-10-23T15:08:35;19.90;99.90
983;DHT22;480;48.124;11.578;2022-10-23T15:11:03;19.80;99.90
983;DHT22;480;48.124;11.578;2022-10-23T15:13:31;19.60;99.90
983;DHT22;480;48.124;11.578;2022-10-23T15:16:03;19.60;99.90
983;DHT22;480;48.124;11.578;2022-10-23T15:18:30;19.50;99.90
983;DHT22;480;48.124;11.578;2022-10-23T15:20:58;19.40;99.90
983;DHT22;480;48.124;11.578;2022-10-23T15:23:25;19.30;99.90
983;DHT22;480;48.124;11.578;2022-10-23T15:25:58;19.30;99.90
983;DHT22;480;48.124;11.578;2022-10-23T15:28:26;19.30;99.90
983;DHT22;480;48.124;11.578;2022-10-23T15:30:53;19.40;99.90
983;DHT22;480;48.124;11.578;2022-10-23T15:33:21;19.30;99.90
983;DHT22;480;48.124;11.578;2022-10-23T15:35:48;19.30;99.90
983;DHT22;480;48.124;11.578;2022-10-23T15:38:15;19.30;99.90
983;DHT22;480;48.124;11.578;2022-10-23T15:40:43;19.30;99.90
983;DHT22;480;48.124;11.578;2022-10-23T15:43:12;19.30;99.90
983;DHT22;480;48.124;11.578;2022-10-23T15:45:41;19.30;99.90
983;DHT22;480;48.124;11.578;2022-10-23T15:48:09;19.10;99.90
983;DHT22;480;48.124;11.578;2022-10-23T15:50:37;19.00;99.90
983;DHT22;480;48.124;11.578;2022-10-23T15:53:04;19.00;99.90
983;DHT22;480;48.124;11.578;2022-10-23T15:55:31;18.80;99.90
983;DHT22;480;48.124;11.578;2022-10-23T15:57:58;18.60;99.90
983;DHT22;480;48.124;11.578;2022-10-23T16:00:30;18.60;99.90
983;DHT22;480;48.124;11.578;2022-10-23T16:03:01;18.50;99.90
983;DHT22;480;48.124;11.578;2022-10-23T16:05:28;18.40;99.90
983;DHT22;480;48.124;11.578;2022-10-23T16:07:55;18.30;99.90
983;DHT22;480;48.124;11.578;2022-10-23T16:10:22;18.30;99.90
983;DHT22;480;48.124;11.578;2022-10-23T16:12:52;18.30;99.90
983;DHT22;480;48.124;11.578;2022-10-23T16:15:20;18.20;99.90
983;DHT22;480;48.124;11.578;2022-10-23T16:17:48;18.10;99.90
983;DHT22;480;48.124;11.578;2022-10-23T16:20:16;18.10;99.90
983;DHT22;480;48.124;11.578;2022-10-23T16:22:44;18.10;99.90
983;DHT22;480;48.124;11.578;2022-10-23T16:25:12;18.00;99.90
983;DHT22;480;48.124;11.578;2022-10-23T16:27:39;17.90;99.90
983;DHT22;480;48.124;11.578;2022-10-23T16:30:09;17.90;99.90
983;DHT22;480;48.124;11.578;2022-10-23T16:32:39;17.90;99.90
983;DHT22;480;48.124;11.578;2022-10-23T16:35:08;17.80;99.90
983;DHT22;480;48.124;11.578;2022-10-23T16:37:35;17.80;99.90
983;DHT22;480;48.124;11.578;2022-10-23T16:40:02;17.90;99.90
983;DHT22;480;48.124;11.578;2022-10-23T16:42:31;17.90;99.90
983;DHT22;480;48.124;11.578;2022-10-23T16:44:59;18.00;99.90
983;DHT22;480;48.124;11.578;2022-10-23T16:47:26;18.00;99.90
983;DHT22;480;48.124;11.578;2022-10-23T16:49:53;17.80;99.90
983;DHT22;480;48.124;11.578;2022-10-23T16:52:21;17.80;99.90